Time;durP1;ratioP1;P1;durP2;ratioP2;P2;SDS_P1;SDS_P2;PMS_P1;PMS_P2;Temp;Humidity;BMP_temperature;BMP_pressure;BME280_temperature;BME280_humidity;BME280_pressure;Samples;Min_cycle;Max_cycle;Signal;HPM_P1;HPM_P2
2022/03/11 09:20:58;;;;;;;9.51;1.95;;;;;;;-1.87;24.75;101276.70;320590;152;856738;-69
2022/03/11 09:23:02;;;;;;;7.42;1.89;;;;;;;-2.04;24.95;101277.28;331515;157;859433;-68
2022/03/11 09:24:05;;;;;;;3.72;1.84;;;;;;;-2.01;24.79;101275.84;325606;160;857042;-68
2022/03/11 09:25:08;;;;;;;3.71;1.31;;;;;;;-1.98;24.75;101275.14;335632;157;857257;-71
2022/03/11 09:26:10;;;;;;;3.74;1.54;;;;;;;;;;337123;150;857202;-80
2022/03/11 09:27:12;;;;;;;2.51;1.39;;;;;;;;;;337415;153;865330;-77
2022/03/11 09:28:13;;;;;;;3.23;1.41;;;;;;;;;;344636;150;864987;-74
2022/03/11 09:29:15;;;;;;;1.67;1.36;;;;;;;;;;340998;153;865895;-74
2022/03/11 09:30:17;;;;;;;4.79;1.58;;;;;;;;;;331564;156;865498;-78
2022/03/11 09:31:18;;;;;;;4.36;1.82;;;;;;;;;;329872;158;858695;-75
2022/03/11 09:32:20;;;;;;;2.19;1.38;;;;;;;;;;337982;155;864589;-76
2022/03/11 09:33:22;;;;;;;3.15;1.20;;;;;;;;;;330894;158;865436;-75
2022/03/11 09:34:24;;;;;;;8.09;1.36;;;;;;;;;;337299;156;857791;-78
2022/03/11 09:35:25;;;;;;;1.55;1.05;;;;;;;;;;335003;156;864588;-78
2022/03/11 09:36:27;;;;;;;7.04;1.52;;;;;;;;;;335166;156;857364;-81
2022/03/11 09:37:29;;;;;;;2.52;1.63;;;;;;;;;;344820;153;865068;-85
2022/03/11 09:38:31;;;;;;;2.19;1.22;;;;;;;;;;333240;156;856937;-81
2022/03/11 09:39:32;;;;;;;1.99;1.29;;;;;;;;;;342746;155;864168;-81
2022/03/11 09:40:36;;;;;;;2.70;1.26;;;;;;;;;;343354;154;865991;-77
2022/03/11 09:41:51;;;;;;;2.91;1.34;;;;;;;;;;334142;157;857079;-74
2022/03/11 09:43:54;;;;;;;4.52;2.04;;;;;;;;;;341752;154;857258;-83
2022/03/11 09:44:56;;;;;;;10.09;2.43;;;;;;;;;;355186;148;858004;-82
2022/03/11 09:45:58;;;;;;;6.90;2.93;;;;;;;;;;347640;151;857936;-84
2022/03/11 09:46:59;;;;;;;9.88;2.67;;;;;;;;;;346780;151;859422;-81
2022/03/11 09:48:01;;;;;;;5.71;1.98;;;;;;;;;;336165;156;864670;-82
2022/03/11 09:49:03;;;;;;;2.07;1.26;;;;;;;;;;331250;160;858015;-82
2022/03/11 09:50:05;;;;;;;3.19;1.37;;;;;;;;;;340999;153;864003;-81
2022/03/11 09:51:08;;;;;;;2.57;1.27;;;;;;;;;;340230;153;866195;-75
2022/03/11 09:52:09;;;;;;;3.83;1.85;;;;;;;;;;325203;159;856845;-76
2022/03/11 09:53:11;;;;;;;10.61;3.96;;;;;;;;;;319519;165;857330;-78
2022/03/11 09:54:13;;;;;;;3.79;1.91;;;;;;;;;;315828;165;864642;-77
2022/03/11 09:55:15;;;;;;;2.93;1.85;;;;;;;;;;341771;150;857274;-78
2022/03/11 09:56:19;;;;;;;4.05;1.62;;;;;;;;;;346034;153;857709;-75
2022/03/11 09:57:24;;;;;;;2.98;1.41;;;;;;;;;;328339;155;856917;-77
2022/03/11 09:58:26;;;;;;;4.33;1.66;;;;;;;;;;333627;153;857476;-81
2022/03/11 09:59:28;;;;;;;3.19;1.37;;;;;;;;;;341392;153;857052;-81
2022/03/11 10:00:29;;;;;;;2.70;1.45;;;;;;;;;;329320;161;857282;-79
2022/03/11 10:01:32;;;;;;;2.16;1.29;;;;;;;;;;329591;158;858851;-77
2022/03/11 10:02:34;;;;;;;3.36;1.56;;;;;;;;;;326635;159;864629;-75
2022/03/11 10:03:36;;;;;;;3.87;1.73;;;;;;;;;;339461;155;856791;-75
2022/03/11 10:04:39;;;;;;;2.97;1.43;;;;;;;;;;343443;154;864963;-74
2022/03/11 10:05:46;;;;;;;4.78;2.09;;;;;;;;;;344184;152;856933;-74
2022/03/11 10:06:48;;;;;;;2.79;1.77;;;;;;;;;;343156;153;857186;-75
2022/03/11 10:08:00;;;;;;;7.12;1.83;;;;;;;;;;327971;159;856872;-76
2022/03/11 10:09:03;;;;;;;3.43;1.41;;;;;;;;;;345521;150;864593;-74
2022/03/11 10:10:15;;;;;;;3.16;1.69;;;;;;;;;;351162;151;857024;-78
2022/03/11 10:11:18;;;;;;;7.84;2.96;;;;;;;;;;347788;151;857467;-82
2022/03/11 10:13:44;;;;;;;7.12;2.47;;;;;;;;;;362429;141;866249;-75
2022/03/11 10:14:45;;;;;;;9.33;2.04;;;;;;;;;;354369;151;857342;-76
2022/03/11 10:15:49;;;;;;;3.05;1.40;;;;;;;;;;356263;147;856843;-75
2022/03/11 10:16:50;;;;;;;3.67;1.26;;;;;;;;;;359497;146;856800;-74
2022/03/11 10:17:52;;;;;;;2.23;1.29;;;;;;;;;;353833;150;856762;-73
2022/03/11 10:18:55;;;;;;;2.21;1.36;;;;;;;;;;341005;155;857010;-75
2022/03/11 10:20:02;;;;;;;3.50;1.49;;;;;;;;;;339668;155;857274;-75
2022/03/11 10:21:07;;;;;;;2.87;1.34;;;;;;;;;;353173;145;857028;-75
2022/03/11 10:22:09;;;;;;;3.18;1.27;;;;;;;;;;347276;152;857474;-78
2022/03/11 10:23:13;;;;;;;4.80;1.38;;;;;;;;;;343374;147;858934;-85
2022/03/11 10:24:16;;;;;;;3.31;1.61;;;;;;;;;;370976;141;856946;-88
2022/03/11 10:25:19;;;;;;;3.37;1.34;;;;;;;;;;372444;141;858686;-80
2022/03/11 10:26:32;;;;;;;2.31;1.30;;;;;;;;;;348850;150;857821;-79
2022/03/11 10:27:43;;;;;;;4.01;1.48;;;;;;;;;;346658;149;856853;-80
2022/03/11 10:28:53;;;;;;;6.93;1.51;;;;;;;;;;340692;154;858559;-76
2022/03/11 10:29:55;;;;;;;2.63;1.27;;;;;;;;;;351769;148;857306;-77
2022/03/11 10:30:58;;;;;;;4.22;1.92;;;;;;;;;;363416;146;857661;-79
2022/03/11 10:32:01;;;;;;;5.54;1.68;;;;;;;;;;361122;147;864733;-79
2022/03/11 10:33:05;;;;;;;9.04;2.30;;;;;;;;;;341608;154;858186;-84
2022/03/11 10:34:11;;;;;;;6.65;2.62;;;;;;;;;;337256;149;857067;-83
2022/03/11 10:35:18;;;;;;;8.99;3.36;;;;;;;;;;335907;156;857335;-80
2022/03/11 10:36:18;;;;;;;5.22;1.90;;;;;;;;;;340988;151;856971;-79
2022/03/11 10:37:20;;;;;;;1.51;1.20;;;;;;;;;;353669;150;856928;-79
2022/03/11 10:38:25;;;;;;;5.76;1.35;;;;;;;;;;345621;148;857402;-78
2022/03/11 10:39:28;;;;;;;3.39;1.54;;;;;;;;;;347346;149;856893;-79
2022/03/11 10:40:31;;;;;;;3.91;1.47;;;;;;;;;;340320;152;856776;-79
2022/03/11 10:41:33;;;;;;;2.05;1.37;;;;;;;;;;359557;145;859161;-78
2022/03/11 10:42:39;;;;;;;2.84;1.30;;;;;;;;;;355039;149;864460;-79
2022/03/11 10:43:41;;;;;;;5.24;1.47;;;;;;;;;;342353;152;856885;-80
2022/03/11 10:44:45;;;;;;;3.00;1.57;;;;;;;;;;343949;151;858807;-79
2022/03/11 10:45:49;;;;;;;2.61;1.25;;;;;;;;;;340032;149;856801;-83
2022/03/11 10:46:53;;;;;;;6.87;1.62;;;;;;;;;;353571;147;857570;-80
2022/03/11 10:47:56;;;;;;;8.51;2.09;;;;;;;;;;338826;154;858770;-79
2022/03/11 10:49:01;;;;;;;5.69;1.79;;;;;;;;;;336988;153;856569;-81
2022/03/11 10:50:05;;;;;;;7.46;2.59;;;;;;;;;;340993;152;856776;-81
2022/03/11 10:51:18;;;;;;;7.39;2.92;;;;;;;;;;343072;151;864880;-83
2022/03/11 10:52:35;;;;;;;3.95;1.88;;;;;;;;;;356855;145;857410;-87
2022/03/11 10:53:38;;;;;;;2.69;1.88;;;;;;;;;;358911;146;856960;-78
2022/03/11 10:54:41;;;;;;;4.78;2.06;;;;;;;;;;356654;148;857295;-78
2022/03/11 10:55:43;;;;;;;4.64;2.12;;;;;;;;;;335019;155;859058;-78
2022/03/11 10:56:47;;;;;;;1.74;1.34;;;;;;;;;;344519;149;864785;-76
2022/03/11 10:57:52;;;;;;;3.94;1.69;;;;;;;;;;348043;149;865099;-80
2022/03/11 10:58:57;;;;;;;5.11;2.09;;;;;;;;;;354492;147;856877;-82
2022/03/11 11:00:18;;;;;;;11.23;2.84;;;;;;;;;;350096;148;858878;-81
2022/03/11 11:01:39;;;;;;;8.39;3.19;;;;;;;;;;349084;147;857362;-83
2022/03/11 11:02:40;;;;;;;14.30;2.76;;;;;;;;;;358356;146;857823;-83
2022/03/11 11:03:42;;;;;;;9.21;3.05;;;;;;;;;;353127;149;857876;-84
2022/03/11 11:04:46;;;;;;;5.16;2.86;;;;;;;;;;347612;149;858700;-84
2022/03/11 11:05:48;;;;;;;10.88;2.90;;;;;;;;;;352735;149;857039;-84
2022/03/11 11:06:51;;;;;;;4.71;2.19;;;;;;;;;;351061;149;857089;-81
2022/03/11 11:07:54;;;;;;;3.94;1.69;;;;;;;;;;346206;151;857828;-79
2022/03/11 11:08:57;;;;;;;2.90;1.49;;;;;;;;;;355439;146;857638;-78
2022/03/11 11:09:59;;;;;;;3.00;1.48;;;;;;;;;;346549;148;857276;-81
2022/03/11 11:11:01;;;;;;;7.59;1.23;;;;;;;;;;353269;147;857375;-81
2022/03/11 11:12:04;;;;;;;7.79;1.80;;;;;;;;;;354395;146;856841;-80
2022/03/11 11:13:09;;;;;;;3.91;1.67;;;;;;;;;;343877;154;857533;-79
2022/03/11 11:14:13;;;;;;;2.68;1.40;;;;;;;;;;341162;152;856978;-85
2022/03/11 11:15:20;;;;;;;1.93;1.33;;;;;;;;;;332159;158;857273;-84
2022/03/11 11:16:25;;;;;;;7.41;1.90;;;;;;;;;;336452;145;858726;-82
2022/03/11 11:17:27;;;;;;;5.08;1.62;;;;;;;;;;351687;150;857050;-84
2022/03/11 11:18:29;;;;;;;6.17;1.83;;;;;;;;;;346745;150;864460;-81
2022/03/11 11:19:31;;;;;;;4.31;1.90;;;;;;;;;;357707;146;856979;-78
2022/03/11 11:20:49;;;;;;;3.51;1.17;;;;;;;;;;356348;148;857526;-81
2022/03/11 11:21:52;;;;;;;2.33;1.17;;;;;;;;;;350259;146;856955;-84
2022/03/11 11:22:54;;;;;;;3.91;1.40;;;;;;;;;;351290;147;857151;-81
2022/03/11 11:23:57;;;;;;;2.25;1.36;;;;;;;;;;353395;149;856852;-81
2022/03/11 11:24:59;;;;;;;2.09;1.17;;;;;;;;;;345583;153;864343;-78
2022/03/11 11:26:01;;;;;;;4.69;1.68;;;;;;;;;;344110;149;856931;-80
2022/03/11 11:27:04;;;;;;;3.08;1.77;;;;;;;;;;345534;149;863991;-80
2022/03/11 11:28:07;;;;;;;6.90;2.43;;;;;;;;;;352438;146;857455;-82
2022/03/11 11:29:09;;;;;;;8.77;2.21;;;;;;;;;;349053;149;857951;-83
2022/03/11 11:30:12;;;;;;;7.76;2.95;;;;;;;;;;343026;149;856876;-83
2022/03/11 11:31:16;;;;;;;6.09;2.46;;;;;;;;;;348170;150;857205;-78
2022/03/11 11:32:18;;;;;;;4.69;1.91;;;;;;;;;;354463;148;864250;-82
2022/03/11 11:33:20;;;;;;;2.53;1.50;;;;;;;;;;355074;147;867179;-79
2022/03/11 11:34:30;;;;;;;3.98;1.49;;;;;;;;;;348753;151;857024;-79
2022/03/11 11:35:33;;;;;;;4.03;2.16;;;;;;;;;;349633;150;857014;-78
2022/03/11 11:36:38;;;;;;;8.67;2.91;;;;;;;;;;350344;150;857098;-78
2022/03/11 11:37:42;;;;;;;8.45;1.61;;;;;;;;;;342189;155;864911;-78
2022/03/11 11:38:45;;;;;;;5.03;1.82;;;;;;;;;;340462;152;856957;-77
2022/03/11 11:39:52;;;;;;;3.98;2.09;;;;;;;;;;346743;152;864280;-78
2022/03/11 11:40:53;;;;;;;4.53;1.90;;;;;;;;;;347631;151;865057;-78
2022/03/11 11:41:56;;;;;;;3.45;1.99;;;;;;;;;;343811;150;856866;-78
2022/03/11 11:43:11;;;;;;;4.47;1.51;;;;;;;;;;348114;150;857131;-78
2022/03/11 11:44:14;;;;;;;3.22;1.48;;;;;;;;;;339356;153;856657;-79
2022/03/11 11:45:16;;;;;;;2.53;1.63;;;;;;;;;;326561;160;857482;-79
2022/03/11 11:46:20;;;;;;;5.93;2.87;;;;;;;;;;332806;157;864942;-79
2022/03/11 11:47:25;;;;;;;10.87;3.05;;;;;;;;;;330572;154;857413;-81
2022/03/11 11:48:42;;;;;;;8.37;3.55;;;;;;;;;;338400;153;866139;-80
2022/03/11 11:49:48;;;;;;;8.68;2.47;;;;;;;;;;347590;149;857915;-83
2022/03/11 11:50:52;;;;;;;5.49;1.84;;;;;;;;;;340565;154;856946;-84
2022/03/11 11:51:54;;;;;;;3.44;1.42;;;;;;;;;;339275;155;856878;-84
2022/03/11 11:52:57;;;;;;;3.22;1.49;;;;;;;;;;341834;151;856806;-80
2022/03/11 11:54:08;;;;;;;5.51;1.53;;;;;;;;;;343567;153;857749;-79
2022/03/11 11:55:13;;;;;;;2.17;1.20;;;;;;;;;;340340;151;858317;-80
2022/03/11 11:56:26;;;;;;;2.65;1.49;;;;;;;;;;341934;153;858940;-80
2022/03/11 11:57:30;;;;;;;2.87;1.62;;;;;;;;;;338233;155;858485;-78
2022/03/11 11:58:33;;;;;;;6.09;1.72;;;;;;;;;;341962;148;858368;-77
2022/03/11 11:59:37;;;;;;;3.29;1.28;;;;;;;;;;344671;153;856809;-79
2022/03/11 12:00:39;;;;;;;5.24;1.79;;;;;;;;;;326555;159;856891;-79
2022/03/11 12:02:01;;;;;;;1.59;1.07;;;;;;;;;;338910;154;858939;-78
2022/03/11 12:03:17;;;;;;;2.38;1.23;;;;;;;;;;357742;147;857826;-79
2022/03/11 12:04:41;;;;;;;3.76;1.17;;;;;;;;;;355840;149;857227;-78
2022/03/11 12:05:53;;;;;;;3.78;0.97;;;;;;;;;;351278;148;856875;-79
2022/03/11 12:07:17;;;;;;;3.62;1.73;;;;;;;;;;338004;153;857434;-78
2022/03/11 12:08:50;;;;;;;;;;;;;;;;;;;;;
2022/03/11 12:10:49;;;;;;;7.86;2.49;;;;;;;;;;345629;151;856660;-79
2022/03/11 12:11:53;;;;;;;4.11;2.04;;;;;;;;;;344255;151;865189;-84
2022/03/11 12:12:58;;;;;;;6.46;1.39;;;;;;;;;;340748;153;857312;-82
2022/03/11 12:14:01;;;;;;;2.89;1.19;;;;;;;;;;341427;151;864448;-78
2022/03/11 12:15:05;;;;;;;3.29;1.48;;;;;;;;;;340262;157;858370;-79
2022/03/11 12:16:23;;;;;;;2.36;1.05;;;;;;;;;;330288;155;856640;-79
2022/03/11 12:17:44;;;;;;;6.03;1.16;;;;;;;;;;329629;155;857343;-78
2022/03/11 12:18:46;;;;;;;3.79;1.06;;;;;;;;;;334980;154;857270;-79
2022/03/11 12:19:49;;;;;;;2.35;0.96;;;;;;;;;;339854;154;858184;-78
2022/03/11 12:20:53;;;;;;;3.66;1.37;;;;;;;;;;331384;156;858393;-79
2022/03/11 12:21:55;;;;;;;2.40;1.16;;;;;;;;;;327626;157;864479;-78
2022/03/11 12:23:18;;;;;;;1.89;1.19;;;;;;;;;;335399;154;857935;-78
2022/03/11 12:24:33;;;;;;;2.18;1.13;;;;;;;;;;343552;151;857060;-77
2022/03/11 12:25:44;;;;;;;4.01;1.10;;;;;;;;;;336854;152;857794;-79
2022/03/11 12:26:46;;;;;;;1.24;0.91;;;;;;;;;;342644;152;858814;-78
2022/03/11 12:28:02;;;;;;;3.99;1.11;;;;;;;;;;335148;156;856973;-78
2022/03/11 12:29:05;;;;;;;1.89;1.16;;;;;;;;;;335292;155;858926;-79
2022/03/11 12:30:08;;;;;;;1.18;1.01;;;;;;;;;;331526;156;857565;-77
2022/03/11 12:31:16;;;;;;;2.52;1.27;;;;;;;;;;336547;152;859692;-77
2022/03/11 12:32:21;;;;;;;3.32;1.60;;;;;;;;;;341401;149;865992;-77
2022/03/11 12:33:26;;;;;;;4.86;1.99;;;;;;;;;;341832;152;857751;-77
2022/03/11 12:34:28;;;;;;;9.39;2.48;;;;;;;;;;342606;152;856912;-79
2022/03/11 12:35:30;;;;;;;7.57;3.17;;;;;;;;;;344397;151;858411;-77
2022/03/11 12:36:33;;;;;;;7.74;2.31;;;;;;;;;;337358;157;858775;-78
2022/03/11 12:37:35;;;;;;;5.12;1.92;;;;;;;;;;326398;160;857029;-78
2022/03/11 12:38:40;;;;;;;6.23;2.41;;;;;;;;;;330125;158;857037;-76
2022/03/11 12:39:42;;;;;;;6.84;2.96;;;;;;;;;;337041;155;857206;-79
2022/03/11 12:40:45;;;;;;;7.67;3.53;;;;;;;;;;340329;150;859254;-78
2022/03/11 12:41:48;;;;;;;6.11;2.20;;;;;;;;;;343577;153;857201;-79
2022/03/11 12:42:50;;;;;;;2.96;1.72;;;;;;;;;;335954;156;856801;-78
2022/03/11 12:43:53;;;;;;;3.64;1.91;;;;;;;;;;330941;156;856825;-77
2022/03/11 12:44:56;;;;;;;4.51;1.76;;;;;;;;;;334370;155;857123;-78
2022/03/11 12:45:58;;;;;;;3.14;1.59;;;;;;;;;;328256;156;857038;-78
2022/03/11 12:47:07;;;;;;;6.17;2.42;;;;;;;;;;327895;159;857530;-78
2022/03/11 12:48:09;;;;;;;1.90;1.02;;;;;;;;;;334429;152;857868;-78
2022/03/11 12:49:13;;;;;;;2.49;1.22;;;;;;;;;;337215;155;864887;-78
2022/03/11 12:50:15;;;;;;;2.63;1.24;;;;;;;;;;328983;155;856707;-78
2022/03/11 12:51:18;;;;;;;3.73;1.21;;;;;;;;;;335468;155;856991;-79
2022/03/11 12:52:20;;;;;;;5.52;1.73;;;;;;;;;;335167;155;857035;-76
2022/03/11 12:53:24;;;;;;;2.84;1.78;;;;;;;;;;330647;155;865330;-77
2022/03/11 12:54:28;;;;;;;3.97;2.01;;;;;;;;;;338317;150;857267;-79
2022/03/11 12:55:33;;;;;;;5.01;1.81;;;;;;;;;;335109;155;858882;-77
2022/03/11 12:56:36;;;;;;;3.96;1.85;;;;;;;;;;348819;150;864365;-79
2022/03/11 12:57:38;;;;;;;2.32;1.12;;;;;;;;;;346954;152;857456;-79
2022/03/11 12:58:40;;;;;;;1.68;1.00;;;;;;;;;;331668;156;856729;-78
2022/03/11 12:59:44;;;;;;;2.01;1.13;;;;;;;;;;332244;156;857194;-78
2022/03/11 13:00:47;;;;;;;2.92;1.11;;;;;;;;;;346565;148;857094;-78
2022/03/11 13:01:52;;;;;;;3.84;1.70;;;;;;;;;;345510;154;858679;-78
2022/03/11 13:02:54;;;;;;;3.91;1.48;;;;;;;;;;332118;154;858209;-77
2022/03/11 13:03:57;;;;;;;2.75;1.28;;;;;;;;;;332025;156;858225;-78
2022/03/11 13:05:00;;;;;;;5.41;1.84;;;;;;;;;;338199;156;857248;-79
2022/03/11 13:06:03;;;;;;;1.64;1.17;;;;;;;;;;330281;157;857470;-77
2022/03/11 13:07:05;;;;;;;3.52;1.03;;;;;;;;;;330469;155;856976;-78
2022/03/11 13:08:08;;;;;;;5.54;1.20;;;;;;;;;;341149;154;865058;-77
2022/03/11 13:09:11;;;;;;;1.23;0.92;;;;;;;;;;349025;151;864716;-77
2022/03/11 13:10:21;;;;;;;1.47;1.24;;;;;;;;;;347274;152;857145;-76
2022/03/11 13:11:29;;;;;;;4.39;1.49;;;;;;;;;;343029;153;857391;-79
2022/03/11 13:12:28;;;;;;;2.39;1.43;;;;;;;;;;340800;154;859241;-78
2022/03/11 13:13:30;;;;;;;4.23;2.02;;;;;;;;;;335385;153;857279;-79
2022/03/11 13:14:33;;;;;;;3.69;1.72;;;;;;;;;;337872;152;858986;-76
2022/03/11 13:15:35;;;;;;;4.13;1.29;;;;;;;;;;327888;161;856789;-78
2022/03/11 13:16:38;;;;;;;2.04;1.37;;;;;;;;;;338608;153;857284;-75
2022/03/11 13:17:46;;;;;;;2.75;1.53;;;;;;;;;;340685;154;857416;-79
2022/03/11 13:18:50;;;;;;;2.81;1.67;;;;;;;;;;332322;156;856887;-79
2022/03/11 13:19:52;;;;;;;1.66;1.04;;;;;;;;;;333471;156;857147;-78
2022/03/11 13:20:56;;;;;;;3.64;1.40;;;;;;;;;;331394;160;856614;-78
2022/03/11 13:21:58;;;;;;;1.88;1.10;;;;;;;;;;330689;159;857295;-79
2022/03/11 13:23:09;;;;;;;5.29;2.23;;;;;;;;;;333793;157;857393;-77
2022/03/11 13:24:12;;;;;;;6.92;2.99;;;;;;;;;;340606;153;856829;-78
2022/03/11 13:25:14;;;;;;;13.99;4.89;;;;;;;;;;349906;150;856889;-78
2022/03/11 13:26:20;;;;;;;6.06;2.65;;;;;;;;;;338833;153;863956;-78
2022/03/11 13:27:22;;;;;;;7.59;2.66;;;;;;;;;;337371;155;857236;-77
2022/03/11 13:28:33;;;;;;;5.69;2.09;;;;;;;;;;346281;149;858243;-78
2022/03/11 13:29:42;;;;;;;3.96;2.37;;;;;;;;;;344331;154;867040;-76
2022/03/11 13:30:46;;;;;;;6.24;2.40;;;;;;;;;;339273;155;856862;-77
2022/03/11 13:31:48;;;;;;;8.98;3.47;;;;;;;;;;338932;154;857453;-78
2022/03/11 13:32:51;;;;;;;8.55;2.17;;;;;;;;;;335750;156;857041;-78
2022/03/11 13:34:00;;;;;;;3.62;1.49;;;;;;;;;;338487;155;858786;-77
2022/03/11 13:35:02;;;;;;;1.71;0.99;;;;;;;;;;340956;154;858741;-79
2022/03/11 13:36:06;;;;;;;1.69;1.01;;;;;;;;;;328675;159;857155;-78
2022/03/11 13:37:12;;;;;;;1.57;1.05;;;;;;;;;;327212;155;857034;-78
2022/03/11 13:38:32;;;;;;;2.71;1.16;;;;;;;;;;333493;154;856837;-78
2022/03/11 13:39:34;;;;;;;4.41;2.42;;;;;;;;;;339374;154;858890;-78
2022/03/11 13:40:37;;;;;;;11.75;3.71;;;;;;;;;;336392;154;864787;-78
2022/03/11 13:41:45;;;;;;;9.27;3.92;;;;;;;;;;349414;153;857360;-78
2022/03/11 13:42:46;;;;;;;17.06;4.81;;;;;;;;;;345159;152;865969;-79
2022/03/11 13:43:58;;;;;;;9.32;3.93;;;;;;;;;;355809;148;857637;-78
2022/03/11 13:45:04;;;;;;;6.68;2.93;;;;;;;;;;347844;151;856883;-78
2022/03/11 13:46:06;;;;;;;7.35;3.38;;;;;;;;;;326954;160;866376;-78
2022/03/11 13:47:10;;;;;;;3.92;2.06;;;;;;;;;;333686;156;857605;-78
2022/03/11 13:48:17;;;;;;;5.19;1.81;;;;;;;;;;339196;153;856861;-78
2022/03/11 13:49:22;;;;;;;3.41;1.74;;;;;;;;;;350172;150;856753;-78
2022/03/11 13:50:24;;;;;;;2.54;1.31;;;;;;;;;;334282;157;857053;-77
2022/03/11 13:51:44;;;;;;;4.61;1.31;;;;;;;;;;321500;163;858503;-77
2022/03/11 13:52:47;;;;;;;3.16;1.19;;;;;;;;;;331433;151;857316;-76
2022/03/11 13:53:51;;;;;;;2.65;1.23;;;;;;;;;;338051;157;857113;-79
2022/03/11 13:54:54;;;;;;;2.22;1.63;;;;;;;;;;343980;155;856960;-79
2022/03/11 13:56:00;;;;;;;1.39;1.08;;;;;;;;;;338476;154;857123;-77
2022/03/11 13:57:19;;;;;;;2.25;1.25;;;;;;;;;;342469;155;856860;-77
2022/03/11 13:58:25;;;;;;;1.23;0.97;;;;;;;;;;337979;156;857623;-78
2022/03/11 13:59:31;;;;;;;1.21;1.01;;;;;;;;;;323798;157;856843;-78
2022/03/11 14:00:35;;;;;;;1.62;1.11;;;;;;;;;;330202;158;859647;-79
2022/03/11 14:01:38;;;;;;;1.88;1.10;;;;;;;;;;330125;159;858976;-77
2022/03/11 14:02:40;;;;;;;2.40;1.38;;;;;;;;;;324566;162;857069;-77
2022/03/11 14:03:43;;;;;;;2.37;1.25;;;;;;;;;;332525;157;857312;-77
2022/03/11 14:05:52;;;;;;;2.14;1.39;;;;;;;;;;330594;158;859427;-78
2022/03/11 14:06:55;;;;;;;2.74;1.33;;;;;;;;;;341676;155;858378;-77
2022/03/11 14:08:00;;;;;;;1.81;1.30;;;;;;;;;;343010;154;865612;-79
2022/03/11 14:09:03;;;;;;;1.82;0.96;;;;;;;;;;344064;152;856846;-78
2022/03/11 14:10:19;;;;;;;2.21;1.20;;;;;;;;;;347305;151;864588;-78
2022/03/11 14:11:21;;;;;;;1.45;1.05;;;;;;;;;;344520;153;863973;-78
2022/03/11 14:12:34;;;;;;;1.50;0.98;;;;;;;;;;340661;155;858178;-79
2022/03/11 14:13:37;;;;;;;1.53;0.88;;;;;;;;;;340314;154;857367;-79
2022/03/11 14:14:43;;;;;;;2.98;1.24;;;;;;;;;;333513;157;857498;-79
2022/03/11 14:15:47;;;;;;;2.51;0.98;;;;;;;;;;322687;158;857543;-78
2022/03/11 14:16:53;;;;;;;3.68;1.13;;;;;;;;;;324147;159;856904;-78
2022/03/11 14:17:58;;;;;;;3.34;1.14;;;;;;;;;;331486;159;857166;-77
2022/03/11 14:19:00;;;;;;;2.56;1.18;;;;;;;;;;325421;160;858443;-78
2022/03/11 14:20:03;;;;;;;2.84;1.00;;;;;;;;;;319968;162;861341;-79
2022/03/11 14:21:06;;;;;;;1.92;1.24;;;;;;;;;;329378;158;857158;-77
2022/03/11 14:22:11;;;;;;;2.17;1.44;;;;;;;;;;341036;157;864822;-77
2022/03/11 14:23:12;;;;;;;3.66;1.77;;;;;;;;;;341358;154;858684;-78
2022/03/11 14:24:17;;;;;;;3.99;1.47;;;;;;;;;;332619;158;866056;-77
2022/03/11 14:25:20;;;;;;;2.00;1.24;;;;;;;;;;323154;163;857413;-77
2022/03/11 14:26:22;;;;;;;1.90;0.93;;;;;;;;;;322402;162;857200;-79
2022/03/11 14:27:24;;;;;;;1.94;1.05;;;;;;;;;;323362;164;857252;-79
2022/03/11 14:28:27;;;;;;;1.64;1.15;;;;;;;;;;317498;162;857730;-75
2022/03/11 14:29:29;;;;;;;2.22;0.97;;;;;;;;;;328662;161;857060;-77
2022/03/11 14:30:32;;;;;;;3.71;1.33;;;;;;;;;;321361;162;858795;-78
2022/03/11 14:31:34;;;;;;;1.97;0.97;;;;;;;;;;337656;156;859562;-77
2022/03/11 14:32:36;;;;;;;2.25;1.00;;;;;;;;;;334099;158;857159;-77
2022/03/11 14:33:40;;;;;;;2.18;0.95;;;;;;;;;;320422;164;857840;-77
2022/03/11 14:34:42;;;;;;;1.40;1.01;;;;;;;;;;319512;158;857966;-77
2022/03/11 14:35:45;;;;;;;2.30;0.99;;;;;;;;;;335909;158;856893;-78
2022/03/11 14:36:47;;;;;;;3.57;1.54;;;;;;;;;;330089;160;856968;-76
2022/03/11 14:37:49;;;;;;;4.67;1.84;;;;;;;;;;325440;161;857150;-78
2022/03/11 14:38:51;;;;;;;4.05;1.13;;;;;;;;;;327834;159;857322;-78
2022/03/11 14:39:53;;;;;;;3.20;1.39;;;;;;;;;;336101;157;857487;-77
2022/03/11 14:40:55;;;;;;;1.75;0.95;;;;;;;;;;329117;160;859374;-77
2022/03/11 14:41:57;;;;;;;5.26;1.23;;;;;;;;;;313867;167;856919;-77
2022/03/11 14:43:00;;;;;;;1.66;0.95;;;;;;;;;;325022;161;857368;-77
2022/03/11 14:44:03;;;;;;;6.53;1.19;;;;;;;;;;332161;157;865161;-78
2022/03/11 14:45:07;;;;;;;2.63;0.96;;;;;;;;;;330195;159;857240;-78
2022/03/11 14:46:10;;;;;;;2.14;1.30;;;;;;;;;;316113;166;857767;-78
2022/03/11 14:47:14;;;;;;;2.59;1.14;;;;;;;;;;326004;157;857175;-76
2022/03/11 14:48:17;;;;;;;3.36;1.12;;;;;;;;;;337355;158;857977;-79
2022/03/11 14:49:19;;;;;;;1.88;1.15;;;;;;;;;;332726;158;858161;-77
2022/03/11 14:50:21;;;;;;;4.89;1.78;;;;;;;;;;321908;163;857395;-78
2022/03/11 14:51:23;;;;;;;2.01;1.05;;;;;;;;;;312069;165;857807;-77
2022/03/11 14:52:27;;;;;;;2.41;1.44;;;;;;;;;;324175;163;856830;-77
2022/03/11 14:53:31;;;;;;;6.37;2.21;;;;;;;;;;331898;159;857027;-79
2022/03/11 14:54:33;;;;;;;7.56;2.91;;;;;;;;;;323624;162;857444;-77
2022/03/11 14:55:35;;;;;;;8.71;1.91;;;;;;;;;;334021;160;864791;-79
2022/03/11 14:56:37;;;;;;;6.66;2.52;;;;;;;;;;324658;160;856673;-78
2022/03/11 14:57:39;;;;;;;3.13;1.35;;;;;;;;;;324679;162;864974;-76
2022/03/11 14:58:43;;;;;;;2.03;1.07;;;;;;;;;;323168;159;857266;-77
2022/03/11 14:59:45;;;;;;;3.00;1.27;;;;;;;;;;332869;158;857482;-77
2022/03/11 15:00:48;;;;;;;4.37;1.51;;;;;;;;;;337109;154;858483;-78
2022/03/11 15:01:50;;;;;;;5.67;1.87;;;;;;;;;;334703;159;856961;-78
2022/03/11 15:02:56;;;;;;;7.86;2.54;;;;;;;;;;334613;158;857299;-78
2022/03/11 15:03:57;;;;;;;4.73;2.37;;;;;;;;;;331818;159;864871;-78
2022/03/11 15:04:59;;;;;;;3.42;1.55;;;;;;;;;;333249;159;858926;-76
2022/03/11 15:06:01;;;;;;;1.51;1.26;;;;;;;;;;332540;157;857567;-77
2022/03/11 15:07:06;;;;;;;2.27;1.43;;;;;;;;;;324156;158;857498;-77
2022/03/11 15:08:07;;;;;;;2.75;1.45;;;;;;;;;;325668;160;858493;-76
2022/03/11 15:09:12;;;;;;;3.13;1.30;;;;;;;;;;323416;163;858747;-76
2022/03/11 15:10:16;;;;;;;2.04;1.18;;;;;;;;;;323955;161;857681;-77
2022/03/11 15:11:18;;;;;;;3.81;1.69;;;;;;;;;;325005;158;856941;-77
2022/03/11 15:12:24;;;;;;;2.25;1.35;;;;;;;;;;319670;160;861326;-78
2022/03/11 15:13:28;;;;;;;3.77;1.52;;;;;;;;;;333493;158;858217;-77
2022/03/11 15:14:30;;;;;;;2.51;1.21;;;;;;;;;;332406;158;864232;-77
2022/03/11 15:15:35;;;;;;;2.21;1.40;;;;;;;;;;335928;157;857097;-76
2022/03/11 15:16:39;;;;;;;3.02;1.54;;;;;;;;;;344803;151;857294;-78
2022/03/11 15:17:42;;;;;;;2.59;1.29;;;;;;;;;;345089;153;864550;-77
2022/03/11 15:18:45;;;;;;;2.86;1.59;;;;;;;;;;314558;168;857820;-79
2022/03/11 15:19:48;;;;;;;5.33;1.01;;;;;;;;;;321266;161;857288;-76
2022/03/11 15:20:51;;;;;;;2.86;1.22;;;;;;;;;;336249;159;866464;-79
2022/03/11 15:21:54;;;;;;;4.29;1.26;;;;;;;;;;328362;161;857006;-76
2022/03/11 15:22:56;;;;;;;2.45;1.31;;;;;;;;;;328853;159;864075;-76
2022/03/11 15:23:57;;;;;;;7.27;2.33;;;;;;;;;;328809;161;858008;-77
2022/03/11 15:24:59;;;;;;;7.41;2.31;;;;;;;;;;320942;163;864360;-77
2022/03/11 15:26:01;;;;;;;6.81;1.79;;;;;;;;;;318648;165;857552;-78
2022/03/11 15:27:04;;;;;;;2.77;1.45;;;;;;;;;;324129;161;857156;-77
2022/03/11 15:28:06;;;;;;;3.99;1.91;;;;;;;;;;334055;159;857144;-77
2022/03/11 15:29:12;;;;;;;2.67;1.66;;;;;;;;;;341337;153;864329;-78
2022/03/11 15:30:20;;;;;;;2.27;1.08;;;;;;;;;;326011;161;858145;-76
2022/03/11 15:31:18;;;;;;;1.68;1.10;;;;;;;;;;322221;155;858708;-77
2022/03/11 15:32:21;;;;;;;5.05;1.53;;;;;;;;;;330623;160;857939;-77
2022/03/11 15:33:23;;;;;;;4.54;1.94;;;;;;;;;;326977;160;857301;-77
2022/03/11 15:34:26;;;;;;;5.09;2.45;;;;;;;;;;324491;161;856959;-77
2022/03/11 15:35:28;;;;;;;3.29;1.90;;;;;;;;;;321638;161;857033;-79
2022/03/11 15:36:31;;;;;;;5.71;1.84;;;;;;;;;;319426;166;864869;-77
2022/03/11 15:37:35;;;;;;;3.90;2.02;;;;;;;;;;320900;160;857681;-77
2022/03/11 15:38:36;;;;;;;3.09;1.58;;;;;;;;;;335915;157;856947;-78
2022/03/11 15:39:39;;;;;;;4.02;1.58;;;;;;;;;;320777;164;864998;-78
2022/03/11 15:40:43;;;;;;;2.99;1.59;;;;;;;;;;326196;158;864641;-78
2022/03/11 15:41:46;;;;;;;3.29;1.86;;;;;;;;;;336767;156;857063;-78
2022/03/11 15:42:50;;;;;;;5.43;1.67;;;;;;;;;;338874;156;857194;-76
2022/03/11 15:43:53;;;;;;;2.78;1.36;;;;;;;;;;342457;152;857418;-78
2022/03/11 15:44:57;;;;;;;2.95;1.40;;;;;;;;;;334547;158;857675;-77
2022/03/11 15:45:59;;;;;;;3.91;1.64;;;;;;;;;;330401;160;865550;-76